Aviation Digital Data Service (ADDS)

Output produced by METARs form (1340 UTC 24 August 2019)
found at http://www.aviationweather.gov/metar/data/
 
Forecast for: RJOB (OKAYAMA AIRPORT , JP)
Text: TAF RJOB 241108Z 2412/2518 25005KT 9000 -RA FEW010 SCT025
Forecast period: 1200 UTC 24 August 2019 to 0900 UTC 25 August 2019
Forecast type: FROM: standard forecast or significant change
Winds: from the WSW (250 degrees) at 6 MPH (5 knots; 2.6 m/s)
Visibility: 6 miles (9 km)
Ceiling: at least 12,000 feet AGL
Clouds: few clouds at 1000 feet AGL
scattered clouds at 2500 feet AGL
Weather: -RA  (light rain)
Text: BECMG 2509/2512 01004KT
Forecast period: 0900 to 1800 UTC 25 August 2019
Forecast type: BECOMING: Conditions expected to become as follows by 1200 UTC 25 August 2019
Winds: from the N (10 degrees) at 5 MPH (4 knots; 2.1 m/s)
Visibility: 6 miles (9 km)
Ceiling: at least 12,000 feet AGL
Clouds: few clouds at 1000 feet AGL
scattered clouds at 2500 feet AGL
Weather: -RA  (light rain)